sensor_id;sensor_type;location;lat;lon;timestamp;temperature;humidity
17215;DHT22;8723;51.502;6.918;2023-07-16T00:00:39;19.80;1.00
17215;DHT22;8723;51.502;6.918;2023-07-16T00:03:06;19.80;1.00
17215;DHT22;8723;51.502;6.918;2023-07-16T00:05:33;19.80;1.00
17215;DHT22;8723;51.502;6.918;2023-07-16T00:07:59;19.80;1.00
17215;DHT22;8723;51.502;6.918;2023-07-16T00:10:28;19.80;1.00
17215;DHT22;8723;51.502;6.918;2023-07-16T00:12:54;19.80;1.00
17215;DHT22;8723;51.502;6.918;2023-07-16T00:15:22;19.70;1.00
17215;DHT22;8723;51.502;6.918;2023-07-16T00:17:48;19.80;1.00
17215;DHT22;8723;51.502;6.918;2023-07-16T00:20:15;19.70;1.00
17215;DHT22;8723;51.502;6.918;2023-07-16T00:22:42;19.60;1.00
17215;DHT22;8723;51.502;6.918;2023-07-16T00:25:09;19.60;1.00
17215;DHT22;8723;51.502;6.918;2023-07-16T00:27:37;19.60;1.00
17215;DHT22;8723;51.502;6.918;2023-07-16T00:30:05;19.60;1.00
17215;DHT22;8723;51.502;6.918;2023-07-16T00:32:32;19.70;1.00
17215;DHT22;8723;51.502;6.918;2023-07-16T00:34:58;19.60;1.00
17215;DHT22;8723;51.502;6.918;2023-07-16T00:37:25;19.50;23.80
17215;DHT22;8723;51.502;6.918;2023-07-16T00:39:52;19.50;99.90
17215;DHT22;8723;51.502;6.918;2023-07-16T00:42:19;19.40;99.90
17215;DHT22;8723;51.502;6.918;2023-07-16T00:44:47;19.40;99.90
17215;DHT22;8723;51.502;6.918;2023-07-16T00:47:13;19.50;99.90
17215;DHT22;8723;51.502;6.918;2023-07-16T00:49:42;19.40;99.90
17215;DHT22;8723;51.502;6.918;2023-07-16T00:52:13;19.30;99.90
17215;DHT22;8723;51.502;6.918;2023-07-16T00:54:43;19.20;99.90
17215;DHT22;8723;51.502;6.918;2023-07-16T00:57:10;19.20;1.00
17215;DHT22;8723;51.502;6.918;2023-07-16T00:59:36;19.20;1.00
17215;DHT22;8723;51.502;6.918;2023-07-16T01:02:05;19.20;1.00
17215;DHT22;8723;51.502;6.918;2023-07-16T01:04:32;19.20;1.00
17215;DHT22;8723;51.502;6.918;2023-07-16T01:07:04;19.20;1.00
17215;DHT22;8723;51.502;6.918;2023-07-16T01:09:33;19.10;1.00
17215;DHT22;8723;51.502;6.918;2023-07-16T01:12:03;19.00;1.00
17215;DHT22;8723;51.502;6.918;2023-07-16T01:14:31;18.90;1.00
17215;DHT22;8723;51.502;6.918;2023-07-16T01:17:01;18.90;1.00
17215;DHT22;8723;51.502;6.918;2023-07-16T01:19:30;18.90;1.00
17215;DHT22;8723;51.502;6.918;2023-07-16T01:24:58;18.90;1.00
17215;DHT22;8723;51.502;6.918;2023-07-16T01:27:50;19.00;1.00
17215;DHT22;8723;51.502;6.918;2023-07-16T01:30:24;18.80;1.00
17215;DHT22;8723;51.502;6.918;2023-07-16T01:32:51;18.90;1.00
17215;DHT22;8723;51.502;6.918;2023-07-16T01:35:19;18.90;1.00
17215;DHT22;8723;51.502;6.918;2023-07-16T01:37:46;18.90;1.00
17215;DHT22;8723;51.502;6.918;2023-07-16T01:40:13;18.90;1.00
17215;DHT22;8723;51.502;6.918;2023-07-16T01:42:42;18.90;1.00
17215;DHT22;8723;51.502;6.918;2023-07-16T01:45:10;18.90;99.90
17215;DHT22;8723;51.502;6.918;2023-07-16T01:47:48;18.80;99.90
17215;DHT22;8723;51.502;6.918;2023-07-16T01:50:20;18.70;99.90
17215;DHT22;8723;51.502;6.918;2023-07-16T01:52:49;18.70;99.90
17215;DHT22;8723;51.502;6.918;2023-07-16T01:55:19;18.60;99.90
17215;DHT22;8723;51.502;6.918;2023-07-16T01:57:48;18.50;99.90
17215;DHT22;8723;51.502;6.918;2023-07-16T02:00:18;18.50;1.00
17215;DHT22;8723;51.502;6.918;2023-07-16T02:02:49;18.40;1.00
17215;DHT22;8723;51.502;6.918;2023-07-16T02:05:19;18.50;1.00
17215;DHT22;8723;51.502;6.918;2023-07-16T02:07:48;18.50;1.00
17215;DHT22;8723;51.502;6.918;2023-07-16T02:10:16;18.50;1.00
17215;DHT22;8723;51.502;6.918;2023-07-16T02:12:43;18.50;1.00
17215;DHT22;8723;51.502;6.918;2023-07-16T02:15:11;18.60;99.90
17215;DHT22;8723;51.502;6.918;2023-07-16T02:17:41;18.50;99.90
17215;DHT22;8723;51.502;6.918;2023-07-16T02:20:13;18.50;99.90
17215;DHT22;8723;51.502;6.918;2023-07-16T02:22:42;18.50;99.90
17215;DHT22;8723;51.502;6.918;2023-07-16T02:25:10;18.40;99.90
17215;DHT22;8723;51.502;6.918;2023-07-16T02:27:37;18.40;99.90
17215;DHT22;8723;51.502;6.918;2023-07-16T02:30:06;18.40;99.90
17215;DHT22;8723;51.502;6.918;2023-07-16T02:32:36;18.40;99.90
17215;DHT22;8723;51.502;6.918;2023-07-16T02:35:05;18.30;99.90
17215;DHT22;8723;51.502;6.918;2023-07-16T02:37:33;18.40;1.00
17215;DHT22;8723;51.502;6.918;2023-07-16T02:40:00;18.40;1.00
17215;DHT22;8723;51.502;6.918;2023-07-16T02:42:28;18.50;1.00
17215;DHT22;8723;51.502;6.918;2023-07-16T02:44:55;18.50;99.90
17215;DHT22;8723;51.502;6.918;2023-07-16T02:47:22;18.50;99.90
17215;DHT22;8723;51.502;6.918;2023-07-16T02:49:50;18.60;99.90
17215;DHT22;8723;51.502;6.918;2023-07-16T02:52:17;18.60;99.90
17215;DHT22;8723;51.502;6.918;2023-07-16T02:54:45;18.60;99.90
17215;DHT22;8723;51.502;6.918;2023-07-16T02:57:12;18.70;99.90
17215;DHT22;8723;51.502;6.918;2023-07-16T02:59:39;18.60;67.60
17215;DHT22;8723;51.502;6.918;2023-07-16T03:02:07;18.60;77.80
17215;DHT22;8723;51.502;6.918;2023-07-16T03:04:36;18.70;42.90
17215;DHT22;8723;51.502;6.918;2023-07-16T03:07:06;18.70;12.20
17215;DHT22;8723;51.502;6.918;2023-07-16T03:09:35;18.70;5.70
17215;DHT22;8723;51.502;6.918;2023-07-16T03:12:07;18.70;1.00
17215;DHT22;8723;51.502;6.918;2023-07-16T03:14:35;18.80;1.00
17215;DHT22;8723;51.502;6.918;2023-07-16T03:17:02;18.70;1.00
17215;DHT22;8723;51.502;6.918;2023-07-16T03:19:28;18.60;1.00
17215;DHT22;8723;51.502;6.918;2023-07-16T03:21:55;18.60;1.00
17215;DHT22;8723;51.502;6.918;2023-07-16T03:24:22;18.60;1.00
17215;DHT22;8723;51.502;6.918;2023-07-16T03:26:49;18.60;1.00
17215;DHT22;8723;51.502;6.918;2023-07-16T03:29:17;18.50;1.00
17215;DHT22;8723;51.502;6.918;2023-07-16T03:31:44;18.60;1.00
17215;DHT22;8723;51.502;6.918;2023-07-16T03:34:10;18.60;1.00
17215;DHT22;8723;51.502;6.918;2023-07-16T03:36:37;18.50;1.00
17215;DHT22;8723;51.502;6.918;2023-07-16T03:39:04;18.40;1.00
17215;DHT22;8723;51.502;6.918;2023-07-16T03:41:31;18.40;1.00
17215;DHT22;8723;51.502;6.918;2023-07-16T03:43:57;18.40;1.00
17215;DHT22;8723;51.502;6.918;2023-07-16T03:46:25;18.30;1.00
17215;DHT22;8723;51.502;6.918;2023-07-16T03:48:53;18.40;1.00
17215;DHT22;8723;51.502;6.918;2023-07-16T03:51:20;18.30;1.00
17215;DHT22;8723;51.502;6.918;2023-07-16T03:53:46;18.30;1.00
17215;DHT22;8723;51.502;6.918;2023-07-16T03:56:13;18.30;1.00
17215;DHT22;8723;51.502;6.918;2023-07-16T03:58:40;18.20;1.00
17215;DHT22;8723;51.502;6.918;2023-07-16T04:01:07;18.20;1.00
17215;DHT22;8723;51.502;6.918;2023-07-16T04:03:35;18.20;1.00
17215;DHT22;8723;51.502;6.918;2023-07-16T04:06:03;18.20;1.00
17215;DHT22;8723;51.502;6.918;2023-07-16T04:08:30;18.10;1.00
17215;DHT22;8723;51.502;6.918;2023-07-16T04:10:56;18.20;1.00
17215;DHT22;8723;51.502;6.918;2023-07-16T04:13:23;18.10;1.00
17215;DHT22;8723;51.502;6.918;2023-07-16T04:15:50;18.20;1.00
17215;DHT22;8723;51.502;6.918;2023-07-16T04:18:18;18.10;1.00
17215;DHT22;8723;51.502;6.918;2023-07-16T04:20:46;18.10;1.00
17215;DHT22;8723;51.502;6.918;2023-07-16T04:23:13;18.10;1.00
17215;DHT22;8723;51.502;6.918;2023-07-16T04:25:40;18.10;1.00
17215;DHT22;8723;51.502;6.918;2023-07-16T04:28:06;18.10;1.00
17215;DHT22;8723;51.502;6.918;2023-07-16T04:30:33;18.10;1.00
17215;DHT22;8723;51.502;6.918;2023-07-16T04:33:00;18.10;1.00
17215;DHT22;8723;51.502;6.918;2023-07-16T04:35:27;18.00;1.00
17215;DHT22;8723;51.502;6.918;2023-07-16T04:37:55;18.00;1.00
17215;DHT22;8723;51.502;6.918;2023-07-16T04:40:22;18.20;1.00
17215;DHT22;8723;51.502;6.918;2023-07-16T04:42:48;18.10;1.00
17215;DHT22;8723;51.502;6.918;2023-07-16T04:45:15;18.10;1.00
17215;DHT22;8723;51.502;6.918;2023-07-16T04:47:42;18.10;1.00
17215;DHT22;8723;51.502;6.918;2023-07-16T04:50:09;18.10;1.00
17215;DHT22;8723;51.502;6.918;2023-07-16T04:52:36;18.10;1.00
17215;DHT22;8723;51.502;6.918;2023-07-16T04:55:05;18.10;1.00
17215;DHT22;8723;51.502;6.918;2023-07-16T04:57:32;18.10;1.00
17215;DHT22;8723;51.502;6.918;2023-07-16T04:59:59;18.10;1.00
17215;DHT22;8723;51.502;6.918;2023-07-16T05:02:26;18.10;1.00
17215;DHT22;8723;51.502;6.918;2023-07-16T05:04:52;18.10;1.00
17215;DHT22;8723;51.502;6.918;2023-07-16T05:07:19;18.20;1.00
17215;DHT22;8723;51.502;6.918;2023-07-16T05:09:46;18.20;1.00
17215;DHT22;8723;51.502;6.918;2023-07-16T05:12:14;18.10;1.00
17215;DHT22;8723;51.502;6.918;2023-07-16T05:14:45;18.10;1.00
17215;DHT22;8723;51.502;6.918;2023-07-16T05:17:12;18.20;1.00
17215;DHT22;8723;51.502;6.918;2023-07-16T05:19:39;18.20;1.00
17215;DHT22;8723;51.502;6.918;2023-07-16T05:22:06;18.20;1.00
17215;DHT22;8723;51.502;6.918;2023-07-16T05:24:33;18.20;1.00
17215;DHT22;8723;51.502;6.918;2023-07-16T05:27:00;18.20;1.00
17215;DHT22;8723;51.502;6.918;2023-07-16T05:29:29;18.30;1.00
17215;DHT22;8723;51.502;6.918;2023-07-16T05:31:56;18.30;1.00
17215;DHT22;8723;51.502;6.918;2023-07-16T05:34:22;18.30;1.00
17215;DHT22;8723;51.502;6.918;2023-07-16T05:36:49;18.30;1.00
17215;DHT22;8723;51.502;6.918;2023-07-16T05:39:19;18.40;1.00
17215;DHT22;8723;51.502;6.918;2023-07-16T05:41:45;18.40;1.00
17215;DHT22;8723;51.502;6.918;2023-07-16T05:44:12;18.40;1.00
17215;DHT22;8723;51.502;6.918;2023-07-16T05:46:40;18.30;1.00
17215;DHT22;8723;51.502;6.918;2023-07-16T05:49:07;18.40;1.00
17215;DHT22;8723;51.502;6.918;2023-07-16T05:51:34;18.40;1.00
17215;DHT22;8723;51.502;6.918;2023-07-16T05:54:01;18.40;1.00
17215;DHT22;8723;51.502;6.918;2023-07-16T05:56:28;18.40;1.00
17215;DHT22;8723;51.502;6.918;2023-07-16T05:58:54;18.40;1.00
17215;DHT22;8723;51.502;6.918;2023-07-16T06:01:21;18.50;1.00
17215;DHT22;8723;51.502;6.918;2023-07-16T06:03:50;18.50;1.00
17215;DHT22;8723;51.502;6.918;2023-07-16T06:06:16;18.60;1.00
17215;DHT22;8723;51.502;6.918;2023-07-16T06:08:43;18.60;1.00
17215;DHT22;8723;51.502;6.918;2023-07-16T06:11:10;18.60;1.00
17215;DHT22;8723;51.502;6.918;2023-07-16T06:13:37;18.60;1.00
17215;DHT22;8723;51.502;6.918;2023-07-16T06:16:04;18.70;1.00
17215;DHT22;8723;51.502;6.918;2023-07-16T06:18:31;18.80;1.00
17215;DHT22;8723;51.502;6.918;2023-07-16T06:20:59;18.80;1.00
17215;DHT22;8723;51.502;6.918;2023-07-16T06:23:26;18.80;1.00
17215;DHT22;8723;51.502;6.918;2023-07-16T06:25:54;18.90;1.00
17215;DHT22;8723;51.502;6.918;2023-07-16T06:28:21;18.90;1.00
17215;DHT22;8723;51.502;6.918;2023-07-16T06:30:49;18.90;1.00
17215;DHT22;8723;51.502;6.918;2023-07-16T06:33:17;19.00;1.00
17215;DHT22;8723;51.502;6.918;2023-07-16T06:35:44;19.10;1.00
17215;DHT22;8723;51.502;6.918;2023-07-16T06:38:14;19.20;1.00
17215;DHT22;8723;51.502;6.918;2023-07-16T06:40:45;19.20;1.00
17215;DHT22;8723;51.502;6.918;2023-07-16T06:43:13;19.30;1.00
17215;DHT22;8723;51.502;6.918;2023-07-16T06:45:40;19.30;1.00
17215;DHT22;8723;51.502;6.918;2023-07-16T06:48:07;19.30;1.00
17215;DHT22;8723;51.502;6.918;2023-07-16T06:50:33;19.40;1.00
17215;DHT22;8723;51.502;6.918;2023-07-16T06:53:00;19.50;1.00
17215;DHT22;8723;51.502;6.918;2023-07-16T06:55:28;19.50;1.00
17215;DHT22;8723;51.502;6.918;2023-07-16T06:57:55;19.50;1.00
17215;DHT22;8723;51.502;6.918;2023-07-16T07:00:22;19.60;1.00
17215;DHT22;8723;51.502;6.918;2023-07-16T07:02:49;19.60;1.00
17215;DHT22;8723;51.502;6.918;2023-07-16T07:05:16;19.50;1.00
17215;DHT22;8723;51.502;6.918;2023-07-16T07:07:42;19.60;1.00
17215;DHT22;8723;51.502;6.918;2023-07-16T07:10:11;19.70;1.00
17215;DHT22;8723;51.502;6.918;2023-07-16T07:12:39;19.80;1.00
17215;DHT22;8723;51.502;6.918;2023-07-16T07:15:07;19.80;1.00
17215;DHT22;8723;51.502;6.918;2023-07-16T07:17:34;19.80;1.00
17215;DHT22;8723;51.502;6.918;2023-07-16T07:20:02;19.90;1.00
17215;DHT22;8723;51.502;6.918;2023-07-16T07:22:29;20.00;1.00
17215;DHT22;8723;51.502;6.918;2023-07-16T07:24:55;20.10;1.00
17215;DHT22;8723;51.502;6.918;2023-07-16T07:27:22;20.10;1.00
17215;DHT22;8723;51.502;6.918;2023-07-16T07:29:50;20.10;1.00
17215;DHT22;8723;51.502;6.918;2023-07-16T07:32:18;20.10;1.00
17215;DHT22;8723;51.502;6.918;2023-07-16T07:34:45;20.20;1.00
17215;DHT22;8723;51.502;6.918;2023-07-16T07:37:12;20.30;1.00
17215;DHT22;8723;51.502;6.918;2023-07-16T07:39:39;20.30;1.00
17215;DHT22;8723;51.502;6.918;2023-07-16T07:42:06;20.40;1.00
17215;DHT22;8723;51.502;6.918;2023-07-16T07:44:34;20.50;1.00
17215;DHT22;8723;51.502;6.918;2023-07-16T07:47:03;20.50;1.00
17215;DHT22;8723;51.502;6.918;2023-07-16T07:49:30;20.50;1.00
17215;DHT22;8723;51.502;6.918;2023-07-16T07:51:57;20.60;1.00
17215;DHT22;8723;51.502;6.918;2023-07-16T07:54:23;20.60;1.00
17215;DHT22;8723;51.502;6.918;2023-07-16T07:56:50;20.60;1.00
17215;DHT22;8723;51.502;6.918;2023-07-16T07:59:17;20.80;1.00
17215;DHT22;8723;51.502;6.918;2023-07-16T08:01:44;20.80;1.00
17215;DHT22;8723;51.502;6.918;2023-07-16T08:04:12;20.90;1.00
17215;DHT22;8723;51.502;6.918;2023-07-16T08:06:38;20.80;1.00
17215;DHT22;8723;51.502;6.918;2023-07-16T08:09:05;20.90;1.00
17215;DHT22;8723;51.502;6.918;2023-07-16T08:11:32;20.90;1.00
17215;DHT22;8723;51.502;6.918;2023-07-16T08:13:59;20.90;1.00
17215;DHT22;8723;51.502;6.918;2023-07-16T08:16:26;21.00;1.00
17215;DHT22;8723;51.502;6.918;2023-07-16T08:18:52;21.10;1.00
17215;DHT22;8723;51.502;6.918;2023-07-16T08:21:21;21.20;1.00
17215;DHT22;8723;51.502;6.918;2023-07-16T08:23:48;21.30;1.00
17215;DHT22;8723;51.502;6.918;2023-07-16T08:26:15;21.30;1.00
17215;DHT22;8723;51.502;6.918;2023-07-16T08:28:42;21.40;1.00
17215;DHT22;8723;51.502;6.918;2023-07-16T08:31:10;21.50;1.00
17215;DHT22;8723;51.502;6.918;2023-07-16T08:33:37;21.50;1.00
17215;DHT22;8723;51.502;6.918;2023-07-16T08:36:04;21.60;1.00
17215;DHT22;8723;51.502;6.918;2023-07-16T08:38:32;21.50;1.00
17215;DHT22;8723;51.502;6.918;2023-07-16T08:41:00;21.50;1.00
17215;DHT22;8723;51.502;6.918;2023-07-16T08:43:28;21.40;1.00
17215;DHT22;8723;51.502;6.918;2023-07-16T08:45:56;21.40;1.00
17215;DHT22;8723;51.502;6.918;2023-07-16T08:48:23;21.50;1.00
17215;DHT22;8723;51.502;6.918;2023-07-16T08:50:49;21.60;1.00
17215;DHT22;8723;51.502;6.918;2023-07-16T08:53:16;21.70;1.00
17215;DHT22;8723;51.502;6.918;2023-07-16T08:55:45;21.50;1.00
17215;DHT22;8723;51.502;6.918;2023-07-16T08:58:14;21.30;1.00
17215;DHT22;8723;51.502;6.918;2023-07-16T09:00:42;21.40;1.00
17215;DHT22;8723;51.502;6.918;2023-07-16T09:03:10;21.50;1.00
17215;DHT22;8723;51.502;6.918;2023-07-16T09:05:38;21.60;1.00
17215;DHT22;8723;51.502;6.918;2023-07-16T09:08:05;21.70;1.00
17215;DHT22;8723;51.502;6.918;2023-07-16T09:10:33;21.70;1.00
17215;DHT22;8723;51.502;6.918;2023-07-16T09:13:01;21.90;1.00
17215;DHT22;8723;51.502;6.918;2023-07-16T09:15:29;22.00;1.00
17215;DHT22;8723;51.502;6.918;2023-07-16T09:17:56;22.20;1.00
17215;DHT22;8723;51.502;6.918;2023-07-16T09:20:23;22.20;1.00
17215;DHT22;8723;51.502;6.918;2023-07-16T09:22:50;22.30;1.00
17215;DHT22;8723;51.502;6.918;2023-07-16T09:25:25;22.30;1.00
17215;DHT22;8723;51.502;6.918;2023-07-16T09:27:51;22.20;1.00
17215;DHT22;8723;51.502;6.918;2023-07-16T09:30:20;22.00;1.00
17215;DHT22;8723;51.502;6.918;2023-07-16T09:32:47;22.00;1.00
17215;DHT22;8723;51.502;6.918;2023-07-16T09:35:15;22.00;1.00
17215;DHT22;8723;51.502;6.918;2023-07-16T09:37:43;22.00;1.00
17215;DHT22;8723;51.502;6.918;2023-07-16T09:40:11;22.10;1.00
17215;DHT22;8723;51.502;6.918;2023-07-16T09:42:39;22.00;1.00
17215;DHT22;8723;51.502;6.918;2023-07-16T09:45:07;22.00;1.00
17215;DHT22;8723;51.502;6.918;2023-07-16T09:47:36;21.90;1.00
17215;DHT22;8723;51.502;6.918;2023-07-16T09:50:03;21.90;1.00
17215;DHT22;8723;51.502;6.918;2023-07-16T09:52:31;22.00;1.00
17215;DHT22;8723;51.502;6.918;2023-07-16T09:55:01;22.00;1.00
17215;DHT22;8723;51.502;6.918;2023-07-16T09:57:32;22.00;1.00
17215;DHT22;8723;51.502;6.918;2023-07-16T10:00:03;22.00;1.00
17215;DHT22;8723;51.502;6.918;2023-07-16T10:02:33;22.10;1.00
17215;DHT22;8723;51.502;6.918;2023-07-16T10:05:11;22.00;1.00
17215;DHT22;8723;51.502;6.918;2023-07-16T10:07:38;22.20;1.00
17215;DHT22;8723;51.502;6.918;2023-07-16T10:10:08;22.20;1.00
17215;DHT22;8723;51.502;6.918;2023-07-16T10:12:36;22.30;1.00
17215;DHT22;8723;51.502;6.918;2023-07-16T10:15:04;22.30;1.00
17215;DHT22;8723;51.502;6.918;2023-07-16T10:17:32;22.50;1.00
17215;DHT22;8723;51.502;6.918;2023-07-16T10:20:02;22.40;1.00
17215;DHT22;8723;51.502;6.918;2023-07-16T10:22:35;22.30;1.00
17215;DHT22;8723;51.502;6.918;2023-07-16T10:25:03;22.30;1.00
17215;DHT22;8723;51.502;6.918;2023-07-16T10:27:31;22.20;1.00
17215;DHT22;8723;51.502;6.918;2023-07-16T10:29:59;22.20;1.00
17215;DHT22;8723;51.502;6.918;2023-07-16T10:32:27;22.30;1.00
17215;DHT22;8723;51.502;6.918;2023-07-16T10:34:55;22.50;1.00
17215;DHT22;8723;51.502;6.918;2023-07-16T10:37:24;22.60;1.00
17215;DHT22;8723;51.502;6.918;2023-07-16T10:39:52;22.90;1.00
17215;DHT22;8723;51.502;6.918;2023-07-16T10:42:19;23.00;1.00
17215;DHT22;8723;51.502;6.918;2023-07-16T10:44:48;22.90;1.00
17215;DHT22;8723;51.502;6.918;2023-07-16T10:47:20;22.70;1.00
17215;DHT22;8723;51.502;6.918;2023-07-16T10:49:48;22.80;1.00
17215;DHT22;8723;51.502;6.918;2023-07-16T10:52:14;22.80;1.00
17215;DHT22;8723;51.502;6.918;2023-07-16T10:54:42;22.80;1.00
17215;DHT22;8723;51.502;6.918;2023-07-16T10:57:10;22.90;1.00
17215;DHT22;8723;51.502;6.918;2023-07-16T10:59:38;22.90;1.00
17215;DHT22;8723;51.502;6.918;2023-07-16T11:02:08;22.80;1.00
17215;DHT22;8723;51.502;6.918;2023-07-16T11:04:36;22.80;1.00
17215;DHT22;8723;51.502;6.918;2023-07-16T11:07:07;22.70;1.00
17215;DHT22;8723;51.502;6.918;2023-07-16T11:09:39;22.60;1.00
17215;DHT22;8723;51.502;6.918;2023-07-16T11:12:09;22.60;1.00
17215;DHT22;8723;51.502;6.918;2023-07-16T11:14:36;22.50;1.00
17215;DHT22;8723;51.502;6.918;2023-07-16T11:17:07;22.50;1.00
17215;DHT22;8723;51.502;6.918;2023-07-16T11:19:34;22.50;1.00
17215;DHT22;8723;51.502;6.918;2023-07-16T11:22:03;22.40;1.00
17215;DHT22;8723;51.502;6.918;2023-07-16T11:24:36;22.40;1.00
17215;DHT22;8723;51.502;6.918;2023-07-16T11:27:05;22.50;1.00
17215;DHT22;8723;51.502;6.918;2023-07-16T11:29:37;22.50;1.00
17215;DHT22;8723;51.502;6.918;2023-07-16T11:32:04;22.50;1.00
17215;DHT22;8723;51.502;6.918;2023-07-16T11:34:31;22.60;1.00
17215;DHT22;8723;51.502;6.918;2023-07-16T11:37:07;22.60;1.00
17215;DHT22;8723;51.502;6.918;2023-07-16T11:39:35;22.50;1.00
17215;DHT22;8723;51.502;6.918;2023-07-16T11:42:02;22.40;1.00
17215;DHT22;8723;51.502;6.918;2023-07-16T11:44:33;22.40;1.00
17215;DHT22;8723;51.502;6.918;2023-07-16T11:47:02;22.50;1.00
17215;DHT22;8723;51.502;6.918;2023-07-16T11:49:29;22.50;1.00
17215;DHT22;8723;51.502;6.918;2023-07-16T11:51:56;22.60;1.00
17215;DHT22;8723;51.502;6.918;2023-07-16T11:54:23;22.50;1.00
17215;DHT22;8723;51.502;6.918;2023-07-16T11:56:50;22.50;1.00
17215;DHT22;8723;51.502;6.918;2023-07-16T11:59:17;22.50;1.00
17215;DHT22;8723;51.502;6.918;2023-07-16T12:01:46;22.50;1.00
17215;DHT22;8723;51.502;6.918;2023-07-16T12:04:15;22.60;1.00
17215;DHT22;8723;51.502;6.918;2023-07-16T12:06:42;22.70;1.00
17215;DHT22;8723;51.502;6.918;2023-07-16T12:09:09;22.80;1.00
17215;DHT22;8723;51.502;6.918;2023-07-16T12:11:36;22.80;1.00
17215;DHT22;8723;51.502;6.918;2023-07-16T12:14:03;22.80;1.00
17215;DHT22;8723;51.502;6.918;2023-07-16T12:16:30;22.80;1.00
17215;DHT22;8723;51.502;6.918;2023-07-16T12:18:57;22.80;1.00
17215;DHT22;8723;51.502;6.918;2023-07-16T12:21:25;22.90;1.00
17215;DHT22;8723;51.502;6.918;2023-07-16T12:23:55;22.90;1.00
17215;DHT22;8723;51.502;6.918;2023-07-16T12:26:22;22.80;1.00
17215;DHT22;8723;51.502;6.918;2023-07-16T12:28:48;22.80;1.00
17215;DHT22;8723;51.502;6.918;2023-07-16T12:31:15;22.80;1.00
17215;DHT22;8723;51.502;6.918;2023-07-16T12:33:43;22.90;1.00
17215;DHT22;8723;51.502;6.918;2023-07-16T12:36:09;23.00;1.00
17215;DHT22;8723;51.502;6.918;2023-07-16T12:38:38;23.10;1.00
17215;DHT22;8723;51.502;6.918;2023-07-16T12:41:05;23.00;1.00
17215;DHT22;8723;51.502;6.918;2023-07-16T12:43:32;23.00;1.00
17215;DHT22;8723;51.502;6.918;2023-07-16T12:46:00;22.90;1.00
17215;DHT22;8723;51.502;6.918;2023-07-16T12:48:28;22.70;1.00
17215;DHT22;8723;51.502;6.918;2023-07-16T12:50:55;22.80;1.00
17215;DHT22;8723;51.502;6.918;2023-07-16T12:53:21;22.80;1.00
17215;DHT22;8723;51.502;6.918;2023-07-16T12:55:50;23.00;1.00
17215;DHT22;8723;51.502;6.918;2023-07-16T12:58:16;23.10;1.00
17215;DHT22;8723;51.502;6.918;2023-07-16T13:00:43;23.30;1.00
17215;DHT22;8723;51.502;6.918;2023-07-16T13:03:10;23.50;1.00
17215;DHT22;8723;51.502;6.918;2023-07-16T13:05:37;23.50;1.00
17215;DHT22;8723;51.502;6.918;2023-07-16T13:08:04;23.50;1.00
17215;DHT22;8723;51.502;6.918;2023-07-16T13:10:31;23.60;1.00
17215;DHT22;8723;51.502;6.918;2023-07-16T13:12:59;23.50;1.00
17215;DHT22;8723;51.502;6.918;2023-07-16T13:15:25;23.50;1.00
17215;DHT22;8723;51.502;6.918;2023-07-16T13:17:53;23.60;1.00
17215;DHT22;8723;51.502;6.918;2023-07-16T13:20:21;23.80;1.00
17215;DHT22;8723;51.502;6.918;2023-07-16T13:22:49;23.90;1.00
17215;DHT22;8723;51.502;6.918;2023-07-16T13:25:16;24.00;1.00
17215;DHT22;8723;51.502;6.918;2023-07-16T13:27:43;23.90;1.00
17215;DHT22;8723;51.502;6.918;2023-07-16T13:30:11;23.80;1.00
17215;DHT22;8723;51.502;6.918;2023-07-16T13:32:39;23.90;1.00
17215;DHT22;8723;51.502;6.918;2023-07-16T13:35:06;24.30;1.00
17215;DHT22;8723;51.502;6.918;2023-07-16T13:37:33;24.60;1.00
17215;DHT22;8723;51.502;6.918;2023-07-16T13:40:00;24.70;1.00
17215;DHT22;8723;51.502;6.918;2023-07-16T13:42:26;25.00;1.00
17215;DHT22;8723;51.502;6.918;2023-07-16T13:44:53;25.40;1.00
17215;DHT22;8723;51.502;6.918;2023-07-16T13:47:21;26.10;1.00
17215;DHT22;8723;51.502;6.918;2023-07-16T13:49:48;26.60;1.00
17215;DHT22;8723;51.502;6.918;2023-07-16T13:52:15;27.20;1.00
17215;DHT22;8723;51.502;6.918;2023-07-16T13:54:42;27.60;1.00
17215;DHT22;8723;51.502;6.918;2023-07-16T13:57:09;27.80;1.00
17215;DHT22;8723;51.502;6.918;2023-07-16T13:59:36;28.00;1.00
17215;DHT22;8723;51.502;6.918;2023-07-16T14:02:03;27.80;1.00
17215;DHT22;8723;51.502;6.918;2023-07-16T14:04:32;27.20;1.00
17215;DHT22;8723;51.502;6.918;2023-07-16T14:06:59;26.50;1.00
17215;DHT22;8723;51.502;6.918;2023-07-16T14:09:26;26.40;1.00
17215;DHT22;8723;51.502;6.918;2023-07-16T14:11:52;26.30;1.00
17215;DHT22;8723;51.502;6.918;2023-07-16T14:14:21;26.10;1.00
17215;DHT22;8723;51.502;6.918;2023-07-16T14:16:48;26.00;1.00
17215;DHT22;8723;51.502;6.918;2023-07-16T14:19:15;25.90;1.00
17215;DHT22;8723;51.502;6.918;2023-07-16T14:21:43;25.70;1.00
17215;DHT22;8723;51.502;6.918;2023-07-16T14:24:10;25.60;1.00
17215;DHT22;8723;51.502;6.918;2023-07-16T14:26:37;25.50;1.00
17215;DHT22;8723;51.502;6.918;2023-07-16T14:29:04;25.40;1.00
17215;DHT22;8723;51.502;6.918;2023-07-16T14:31:31;25.20;1.00
17215;DHT22;8723;51.502;6.918;2023-07-16T14:33:57;25.10;1.00
17215;DHT22;8723;51.502;6.918;2023-07-16T14:36:24;25.20;1.00
17215;DHT22;8723;51.502;6.918;2023-07-16T14:38:54;25.20;1.00
17215;DHT22;8723;51.502;6.918;2023-07-16T14:41:21;25.20;1.00
17215;DHT22;8723;51.502;6.918;2023-07-16T14:43:48;25.30;1.00
17215;DHT22;8723;51.502;6.918;2023-07-16T14:46:15;25.20;1.00
17215;DHT22;8723;51.502;6.918;2023-07-16T14:48:42;25.10;1.00
17215;DHT22;8723;51.502;6.918;2023-07-16T14:51:09;24.90;1.00
17215;DHT22;8723;51.502;6.918;2023-07-16T14:53:36;24.80;1.00
17215;DHT22;8723;51.502;6.918;2023-07-16T14:56:04;24.70;1.00
17215;DHT22;8723;51.502;6.918;2023-07-16T14:58:33;24.70;1.00
17215;DHT22;8723;51.502;6.918;2023-07-16T15:01:00;24.60;1.00
17215;DHT22;8723;51.502;6.918;2023-07-16T15:03:29;24.60;1.00
17215;DHT22;8723;51.502;6.918;2023-07-16T15:05:57;24.60;1.00
17215;DHT22;8723;51.502;6.918;2023-07-16T15:08:24;24.70;1.00
17215;DHT22;8723;51.502;6.918;2023-07-16T15:10:52;24.60;1.00
17215;DHT22;8723;51.502;6.918;2023-07-16T15:13:22;24.60;1.00
17215;DHT22;8723;51.502;6.918;2023-07-16T15:15:51;24.60;1.00
17215;DHT22;8723;51.502;6.918;2023-07-16T15:18:18;24.60;1.00
17215;DHT22;8723;51.502;6.918;2023-07-16T15:20:46;24.60;1.00
17215;DHT22;8723;51.502;6.918;2023-07-16T15:23:13;24.50;1.00
17215;DHT22;8723;51.502;6.918;2023-07-16T15:25:41;24.50;1.00
17215;DHT22;8723;51.502;6.918;2023-07-16T15:28:08;24.50;1.00
17215;DHT22;8723;51.502;6.918;2023-07-16T15:30:36;24.50;1.00
17215;DHT22;8723;51.502;6.918;2023-07-16T15:33:03;24.50;1.00
17215;DHT22;8723;51.502;6.918;2023-07-16T15:35:30;24.40;1.00
17215;DHT22;8723;51.502;6.918;2023-07-16T15:37:57;24.40;1.00
17215;DHT22;8723;51.502;6.918;2023-07-16T15:40:25;24.30;1.00
17215;DHT22;8723;51.502;6.918;2023-07-16T15:42:52;24.40;1.00
17215;DHT22;8723;51.502;6.918;2023-07-16T15:45:19;24.50;1.00
17215;DHT22;8723;51.502;6.918;2023-07-16T15:47:47;24.50;1.00
17215;DHT22;8723;51.502;6.918;2023-07-16T15:50:19;24.50;1.00
17215;DHT22;8723;51.502;6.918;2023-07-16T15:52:46;24.50;1.00
17215;DHT22;8723;51.502;6.918;2023-07-16T15:55:13;24.60;1.00
17215;DHT22;8723;51.502;6.918;2023-07-16T15:57:40;24.70;1.00
17215;DHT22;8723;51.502;6.918;2023-07-16T16:00:08;24.70;1.00
17215;DHT22;8723;51.502;6.918;2023-07-16T16:02:40;24.70;1.00
17215;DHT22;8723;51.502;6.918;2023-07-16T16:05:08;24.60;1.00